Time;durP1;ratioP1;P1;durP2;ratioP2;P2;SDS_P1;SDS_P2;PMS_P1;PMS_P2;Temp;Humidity;BMP_temperature;BMP_pressure;BME280_temperature;BME280_humidity;BME280_pressure;Samples;Min_cycle;Max_cycle;Signal;HPM_P1;HPM_P2
2023/10/08 00:01:14;;;;;;;0.50;0.50;;;;;;;15.08;48.25;97629.06;29395;215;63004;-68
2023/10/08 00:01:45;;;;;;;0.40;0.40;;;;;;;15.08;48.09;97634.53;29394;267;64013;-57
2023/10/08 00:02:22;;;;;;;0.50;0.50;;;;;;;15.09;48.48;97630.69;29395;206;63004;-70
2023/10/08 00:02:53;;;;;;;0.40;0.40;;;;;;;15.07;48.05;97636.44;29395;231;63008;-67
2023/10/08 00:03:29;;;;;;;0.40;0.40;;;;;;;15.06;48.26;97629.34;29394;231;64004;-69
2023/10/08 00:04:04;;;;;;;0.50;0.50;;;;;;;15.06;48.14;97620.34;29395;328;63009;-56
2023/10/08 00:04:39;;;;;;;0.45;0.45;;;;;;;15.07;48.15;97624.69;29394;210;64009;-69
2023/10/08 00:05:16;;;;;;;0.50;0.50;;;;;;;15.05;46.83;97626.94;29395;209;63021;-57
2023/10/08 00:05:49;;;;;;;0.40;0.40;;;;;;;15.06;47.87;97620.34;29395;218;63005;-69
2023/10/08 00:06:21;;;;;;;0.50;0.50;;;;;;;15.05;47.83;97611.34;29395;212;63009;-70
2023/10/08 00:06:53;;;;;;;0.50;0.50;;;;;;;15.06;48.02;97623.09;29395;222;63005;-69
2023/10/08 00:07:28;;;;;;;0.40;0.40;;;;;;;15.07;47.82;97619.22;29395;296;63026;-69
2023/10/08 00:07:59;;;;;;;0.40;0.40;;;;;;;15.07;48.28;97622.78;29395;216;63004;-70
2023/10/08 00:08:31;;;;;;;0.40;0.40;;;;;;;15.07;47.80;97616.50;29395;202;63009;-69
2023/10/08 00:09:08;;;;;;;0.40;0.40;;;;;;;15.06;47.61;97618.44;29395;197;63004;-68
2023/10/08 00:09:40;;;;;;;0.40;0.40;;;;;;;15.06;47.72;97615.69;29394;219;64013;-68
2023/10/08 00:10:13;;;;;;;0.50;0.50;;;;;;;15.06;47.64;97606.69;29395;239;63004;-69
2023/10/08 00:10:47;;;;;;;0.50;0.50;;;;;;;15.06;47.23;97606.69;29395;218;63008;-70
2023/10/08 00:11:18;;;;;;;0.40;0.40;;;;;;;15.09;47.00;97606.06;29395;338;63005;-70
2023/10/08 00:11:54;;;;;;;0.40;0.40;;;;;;;15.08;46.86;97609.91;29395;199;63009;-70
2023/10/08 00:12:28;;;;;;;0.40;0.40;;;;;;;15.06;47.05;97606.69;29395;225;63005;-71
2023/10/08 00:12:59;;;;;;;0.40;0.40;;;;;;;15.05;47.45;97605.06;29395;266;63009;-68
2023/10/08 00:13:31;;;;;;;0.40;0.40;;;;;;;15.04;47.13;97614.38;29395;216;63005;-73
2023/10/08 00:14:08;;;;;;;0.50;0.50;;;;;;;15.04;47.42;97603.44;29395;221;63009;-68
2023/10/08 00:14:49;;;;;;;0.40;0.40;;;;;;;14.99;47.16;97600.81;29394;222;64009;-68
2023/10/08 00:15:20;;;;;;;0.40;0.40;;;;;;;15.02;47.14;97606.47;29417;225;63009;-71
2023/10/08 00:15:52;;;;;;;0.50;0.50;;;;;;;15.03;47.33;97604.56;29395;330;63004;-68
2023/10/08 00:16:28;;;;;;;0.40;0.40;;;;;;;15.02;47.46;97602.94;29395;208;63009;-67
2023/10/08 00:17:00;;;;;;;0.50;0.50;;;;;;;15.02;47.47;97608.41;29395;214;63004;-68
2023/10/08 00:17:31;;;;;;;0.50;0.50;;;;;;;15.01;47.29;97609.50;29395;227;63008;-69
2023/10/08 00:18:11;;;;;;;0.43;0.43;;;;;;;15.00;47.32;97607.91;29395;214;63009;-68
2023/10/08 00:18:52;;;;;;;0.50;0.50;;;;;;;14.97;47.64;97608.50;29439;202;63009;-68
2023/10/08 00:19:24;;;;;;;0.50;0.50;;;;;;;14.96;47.32;97604.97;29417;222;63005;-69
2023/10/08 00:20:00;;;;;;;0.47;0.47;;;;;;;14.95;47.13;97599.78;29394;208;64013;-69
2023/10/08 00:20:47;;;;;;;0.40;0.40;;;;;;;14.95;46.72;97610.72;29395;322;63005;-69
2023/10/08 00:21:26;;;;;;;0.40;0.40;;;;;;;14.93;47.01;97607.47;29395;203;63009;-68
2023/10/08 00:22:04;;;;;;;0.50;0.50;;;;;;;14.93;47.46;97604.75;29395;305;63004;-69
2023/10/08 00:22:54;;;;;;;0.40;0.40;;;;;;;14.93;47.31;97612.94;29395;208;63009;-68
2023/10/08 00:23:26;;;;;;;0.50;0.50;;;;;;;14.93;46.84;97602.00;29395;317;63004;-58
2023/10/08 00:24:05;;;;;;;0.50;0.50;;;;;;;14.94;47.11;97603.62;29395;260;63018;-69
2023/10/08 00:24:42;;;;;;;0.50;0.50;;;;;;;14.93;47.06;97616.50;29395;221;63004;-57
2023/10/08 00:25:16;;;;;;;0.40;0.40;;;;;;;14.94;46.90;97609.09;29394;222;64013;-67
2023/10/08 00:25:57;;;;;;;0.50;0.50;;;;;;;14.91;46.74;97612.44;29395;214;63005;-68
2023/10/08 00:26:32;;;;;;;0.50;0.50;;;;;;;14.91;47.72;97620.63;29395;225;63026;-68
2023/10/08 00:27:06;;;;;;;0.40;0.40;;;;;;;14.93;47.28;97615.69;29394;204;64009;-70
2023/10/08 00:27:38;;;;;;;0.40;0.40;;;;;;;14.94;46.92;97614.56;29394;202;64013;-57
2023/10/08 00:28:10;;;;;;;0.40;0.40;;;;;;;14.94;46.30;97609.09;29394;220;64009;-68
2023/10/08 00:28:42;;;;;;;0.40;0.40;;;;;;;14.94;46.71;97609.09;29395;202;63009;-69
2023/10/08 00:29:17;;;;;;;0.50;0.50;;;;;;;14.93;47.08;97612.94;29395;226;63018;-70
2023/10/08 00:29:49;;;;;;;0.40;0.40;;;;;;;14.92;47.38;97612.12;29395;283;63009;-68
2023/10/08 00:30:20;;;;;;;0.40;0.40;;;;;;;14.93;46.55;97613.75;29395;216;63004;-68
2023/10/08 00:30:55;;;;;;;0.50;0.50;;;;;;;14.92;46.91;97606.66;29395;285;63009;-71
2023/10/08 00:31:37;;;;;;;0.50;0.50;;;;;;;14.90;46.90;97608.91;29395;244;63004;-67
2023/10/08 00:32:12;;;;;;;0.50;0.50;;;;;;;14.92;47.51;97617.59;29395;252;63008;-69
2023/10/08 00:32:44;;;;;;;0.50;0.50;;;;;;;14.91;47.34;97615.16;29394;219;64008;-68
2023/10/08 00:33:16;;;;;;;0.50;0.50;;;;;;;14.90;47.46;97614.38;29395;205;63009;-67
2023/10/08 00:33:48;;;;;;;0.50;0.50;;;;;;;14.89;47.08;97612.78;29395;197;63005;-69
2023/10/08 00:34:20;;;;;;;0.40;0.40;;;;;;;14.89;47.41;97606.50;29395;216;63009;-68
2023/10/08 00:34:51;;;;;;;0.40;0.40;;;;;;;14.90;47.25;97613.59;29395;207;63005;-69
2023/10/08 00:35:22;;;;;;;0.47;0.47;;;;;;;14.90;46.96;97613.59;29395;207;63009;-57
2023/10/08 00:35:57;;;;;;;0.47;0.47;;;;;;;14.92;47.40;97614.06;29395;219;63002;-67
2023/10/08 00:36:28;;;;;;;0.50;0.50;;;;;;;14.91;47.39;97613.25;29395;222;63009;-68
2023/10/08 00:36:59;;;;;;;0.50;0.50;;;;;;;14.91;47.46;97610.50;29395;217;63005;-68
2023/10/08 00:37:34;;;;;;;0.50;0.50;;;;;;;14.92;47.72;97608.59;29394;221;64013;-69
2023/10/08 00:38:14;;;;;;;0.45;0.45;;;;;;;14.93;47.19;97612.94;29395;208;63004;-69
2023/10/08 00:38:59;;;;;;;0.43;0.43;;;;;;;14.93;47.02;97607.47;29395;276;63009;-68
2023/10/08 00:39:34;;;;;;;0.50;0.50;;;;;;;14.93;47.29;97604.75;29395;214;63004;-69
2023/10/08 00:40:12;;;;;;;0.50;0.50;;;;;;;14.93;46.52;97602.00;29395;218;63008;-68
2023/10/08 00:40:46;;;;;;;0.50;0.50;;;;;;;14.93;47.00;97602.00;29395;249;63005;-68
2023/10/08 00:41:21;;;;;;;0.50;0.50;;;;;;;14.94;47.07;97614.56;29395;205;63009;-71
2023/10/08 00:41:59;;;;;;;0.50;0.50;;;;;;;14.94;47.39;97598.97;29395;252;63005;-68
2023/10/08 00:42:31;;;;;;;0.50;0.50;;;;;;;14.95;47.42;97605.25;29394;276;64013;-70
2023/10/08 00:43:10;;;;;;;0.47;0.47;;;;;;;14.96;47.81;97606.88;29394;227;64009;-71
2023/10/08 00:43:42;;;;;;;0.45;0.45;;;;;;;14.95;47.58;97602.53;29395;218;63009;-70
2023/10/08 00:44:23;;;;;;;0.50;0.50;;;;;;;14.96;47.95;97606.88;29395;225;63005;-71
2023/10/08 00:44:54;;;;;;;0.50;0.50;;;;;;;14.96;47.92;97595.94;29417;246;63009;-67
2023/10/08 00:45:28;;;;;;;0.50;0.50;;;;;;;14.99;48.24;97603.53;29395;286;63004;-70
2023/10/08 00:46:21;;;;;;;0.50;0.50;;;;;;;14.99;48.05;97598.06;29395;232;63018;-67
2023/10/08 00:46:55;;;;;;;0.43;0.43;;;;;;;15.01;48.30;97604.06;29417;219;63004;-68
2023/10/08 00:47:28;;;;;;;0.40;0.40;;;;;;;15.01;48.44;97604.06;29395;229;63008;-71
2023/10/08 00:48:00;;;;;;;0.40;0.40;;;;;;;15.04;48.55;97600.72;29395;240;63005;-71
2023/10/08 00:48:35;;;;;;;0.40;0.40;;;;;;;15.06;47.85;97601.22;29394;200;64014;-68
2023/10/08 00:49:24;;;;;;;0.40;0.40;;;;;;;15.07;47.65;97597.38;29395;205;63009;-70
2023/10/08 00:50:07;;;;;;;0.50;0.50;;;;;;;15.09;47.89;97595.97;29395;224;63027;-59
2023/10/08 00:50:44;;;;;;;0.50;0.50;;;;;;;15.15;46.46;97588.47;29395;220;63005;-70
2023/10/08 00:51:26;;;;;;;0.50;0.50;;;;;;;15.18;46.73;97573.38;29395;216;63009;-69
2023/10/08 00:53:09;;;;;;;0.50;0.50;;;;;;;15.24;46.25;97575.69;29417;271;63013;-57
2023/10/08 00:53:43;;;;;;;0.40;0.40;;;;;;;15.25;46.12;97571.81;29394;220;64009;-66
2023/10/08 00:54:17;;;;;;;0.40;0.40;;;;;;;15.27;46.36;97575.06;29394;199;64013;-68
2023/10/08 00:55:09;;;;;;;0.40;0.40;;;;;;;15.29;46.19;97581.03;29395;204;63004;-68
2023/10/08 00:55:46;;;;;;;0.40;0.40;;;;;;;15.32;45.44;97574.16;29416;197;64014;-70
2023/10/08 00:56:22;;;;;;;0.40;0.40;;;;;;;15.32;46.04;97566.75;29395;245;63005;-71
2023/10/08 00:56:57;;;;;;;0.50;0.50;;;;;;;15.33;45.61;97565.62;29395;276;63009;-58
2023/10/08 00:57:30;;;;;;;0.40;0.40;;;;;;;15.35;45.97;97577.09;29395;198;63005;-58
2023/10/08 00:58:09;;;;;;;0.40;0.40;;;;;;;15.37;45.02;97568.56;29395;273;63026;-56
2023/10/08 00:58:42;;;;;;;0.50;0.50;;;;;;;15.38;45.53;97565.53;29395;349;63012;-55
2023/10/08 00:59:15;;;;;;;0.40;0.40;;;;;;;15.39;45.03;97567.16;29395;231;63009;-57
2023/10/08 00:59:53;;;;;;;0.40;0.40;;;;;;;15.38;45.19;97562.78;29395;318;63004;-58
2023/10/08 01:00:33;;;;;;;0.40;0.40;;;;;;;15.38;45.18;97564.72;29395;209;63009;-57
2023/10/08 01:01:08;;;;;;;0.50;0.50;;;;;;;15.37;45.17;97569.37;29394;202;64009;-70
2023/10/08 01:01:51;;;;;;;0.40;0.40;;;;;;;15.38;45.25;97568.28;29395;219;63009;-58
2023/10/08 01:02:30;;;;;;;0.40;0.40;;;;;;;15.38;44.85;97560.06;29395;202;63004;-58
2023/10/08 01:03:03;;;;;;;0.45;0.45;;;;;;;15.40;44.99;97566.03;29395;231;63009;-58
2023/10/08 01:03:43;;;;;;;0.40;0.40;;;;;;;15.40;44.79;97562.50;29395;210;63005;-56
2023/10/08 01:04:16;;;;;;;0.40;0.40;;;;;;;15.41;44.42;97556.72;29395;265;63009;-69
2023/10/08 01:04:50;;;;;;;0.40;0.40;;;;;;;15.42;45.03;97560.25;29394;292;64005;-57
2023/10/08 01:05:34;;;;;;;0.40;0.40;;;;;;;15.40;44.57;97563.31;29395;372;63009;-67
2023/10/08 01:06:10;;;;;;;0.40;0.40;;;;;;;15.42;44.96;97568.47;29394;211;64009;-58
2023/10/08 01:06:42;;;;;;;0.50;0.50;;;;;;;15.42;44.83;97565.72;29395;235;63009;-59
2023/10/08 01:07:16;;;;;;;0.40;0.40;;;;;;;15.42;45.15;97565.72;29395;217;63004;-60
2023/10/08 01:07:50;;;;;;;0.40;0.40;;;;;;;15.42;44.59;97566.53;29395;223;63009;-57
2023/10/08 01:08:36;;;;;;;0.40;0.40;;;;;;;15.40;44.63;97563.31;29395;206;63004;-57
2023/10/08 01:09:21;;;;;;;0.43;0.43;;;;;;;15.38;45.40;97564.72;29395;374;63009;-69
2023/10/08 01:09:59;;;;;;;0.50;0.50;;;;;;;15.36;45.56;97567.75;29395;222;63004;-71
2023/10/08 01:10:32;;;;;;;0.40;0.40;;;;;;;15.34;45.80;97563.72;29394;237;64013;-58
2023/10/08 01:11:31;;;;;;;0.40;0.40;;;;;;;15.32;45.69;97564.03;29394;239;64009;-57
2023/10/08 01:12:12;;;;;;;0.40;0.40;;;;;;;15.32;45.48;97561.28;29395;219;63009;-68
2023/10/08 01:13:45;;;;;;;0.50;0.50;;;;;;;15.31;45.46;97559.66;29395;239;63009;-70
2023/10/08 01:14:24;;;;;;;0.40;0.40;;;;;;;15.32;45.69;97566.75;29395;230;63005;-58
2023/10/08 01:15:04;;;;;;;0.40;0.40;;;;;;;15.31;45.00;97569.78;29395;202;63009;-58
2023/10/08 01:15:37;;;;;;;0.50;0.50;;;;;;;15.32;45.46;97572.22;29417;233;63004;-58
2023/10/08 01:16:09;;;;;;;0.50;0.50;;;;;;;15.34;44.95;97555.50;29394;269;64013;-69
2023/10/08 01:16:46;;;;;;;0.40;0.40;;;;;;;15.35;44.53;97554.41;29395;228;63004;-57
2023/10/08 01:17:19;;;;;;;0.50;0.50;;;;;;;15.35;45.32;97562.59;29395;224;63008;-58
2023/10/08 01:17:58;;;;;;;0.50;0.50;;;;;;;15.35;45.03;97559.88;29395;210;63004;-69
2023/10/08 01:18:32;;;;;;;0.50;0.50;;;;;;;15.32;45.05;97561.28;29395;246;63014;-57
2023/10/08 01:19:04;;;;;;;0.50;0.50;;;;;;;15.31;45.40;97565.12;29395;213;63005;-57
2023/10/08 01:19:40;;;;;;;0.40;0.40;;;;;;;15.32;45.33;97557.75;29395;218;63009;-59
2023/10/08 01:20:33;;;;;;;0.40;0.40;;;;;;;15.32;45.16;97566.75;29395;215;63016;-69
2023/10/08 01:21:08;;;;;;;0.40;0.40;;;;;;;15.32;45.08;97561.28;29395;197;63009;-71
2023/10/08 01:21:40;;;;;;;0.40;0.40;;;;;;;15.32;45.57;97561.28;29394;240;64009;-57
2023/10/08 01:22:17;;;;;;;0.40;0.40;;;;;;;15.33;44.80;97551.16;29395;207;63009;-68
2023/10/08 01:22:48;;;;;;;0.50;0.50;;;;;;;15.33;45.18;97554.69;29395;199;63012;-58
2023/10/08 01:23:21;;;;;;;0.40;0.40;;;;;;;15.35;44.83;97554.41;29395;198;63014;-70
2023/10/08 01:23:54;;;;;;;0.40;0.40;;;;;;;15.35;44.77;97549.75;29395;203;63004;-58
2023/10/08 01:24:27;;;;;;;0.40;0.40;;;;;;;15.37;44.83;97549.44;29395;219;63008;-57
2023/10/08 01:25:01;;;;;;;0.40;0.40;;;;;;;15.35;44.63;97546.19;29395;227;63004;-59
2023/10/08 01:25:34;;;;;;;0.40;0.40;;;;;;;15.35;45.01;97548.94;29395;205;63008;-57
2023/10/08 01:26:10;;;;;;;0.50;0.50;;;;;;;15.40;44.74;97546.91;29395;214;63005;-71
2023/10/08 01:26:42;;;;;;;0.50;0.50;;;;;;;15.40;44.56;97551.56;29394;203;64013;-67
2023/10/08 01:27:20;;;;;;;0.40;0.40;;;;;;;15.38;44.40;97548.31;29394;218;64009;-57
2023/10/08 01:28:01;;;;;;;0.50;0.50;;;;;;;15.35;44.70;97549.75;29395;199;63009;-57
2023/10/08 01:28:33;;;;;;;0.40;0.40;;;;;;;15.34;45.19;97559.06;29417;246;63005;-58
2023/10/08 01:29:06;;;;;;;0.40;0.40;;;;;;;15.31;45.08;97548.72;29395;238;63009;-68
2023/10/08 01:29:39;;;;;;;0.50;0.50;;;;;;;15.31;45.74;97548.72;29395;209;63004;-66
2023/10/08 01:30:17;;;;;;;0.43;0.43;;;;;;;15.31;44.80;97559.66;29395;213;63009;-69
2023/10/08 01:30:53;;;;;;;0.50;0.50;;;;;;;15.29;45.39;97556.44;29395;210;63004;-68
2023/10/08 01:31:24;;;;;;;0.40;0.40;;;;;;;15.31;45.53;97554.19;29394;344;64013;-58
2023/10/08 01:31:56;;;;;;;0.40;0.40;;;;;;;15.33;44.90;97551.16;29395;225;63004;-57
2023/10/08 01:32:34;;;;;;;0.40;0.40;;;;;;;15.32;45.32;97550.34;29395;216;63009;-70
2023/10/08 01:33:07;;;;;;;0.40;0.40;;;;;;;15.31;45.46;97554.19;29395;232;63005;-59
2023/10/08 01:33:38;;;;;;;0.45;0.45;;;;;;;15.32;45.04;97553.09;29395;240;63009;-71
2023/10/08 01:34:15;;;;;;;0.40;0.40;;;;;;;15.35;45.02;97555.22;29395;233;63010;-67
2023/10/08 01:34:47;;;;;;;0.55;0.55;;;;;;;15.36;44.55;97553.28;29395;266;63009;-69
2023/10/08 01:35:24;;;;;;;0.40;0.40;;;;;;;15.36;44.39;97556.81;29395;197;63005;-68
2023/10/08 01:36:03;;;;;;;0.40;0.40;;;;;;;15.38;44.46;97549.13;29395;233;63009;-70
2023/10/08 01:36:36;;;;;;;0.50;0.50;;;;;;;15.40;44.46;97552.38;29416;221;64009;-58
2023/10/08 01:37:12;;;;;;;0.40;0.40;;;;;;;15.41;44.39;97553.97;29395;239;63009;-58
2023/10/08 01:37:45;;;;;;;0.40;0.40;;;;;;;15.38;44.14;97551.84;29395;196;63004;-69
2023/10/08 01:38:23;;;;;;;0.50;0.50;;;;;;;15.37;44.53;97554.91;29395;287;63009;-70
2023/10/08 01:38:57;;;;;;;0.50;0.50;;;;;;;15.33;45.13;97557.44;29395;254;63004;-69
2023/10/08 01:39:32;;;;;;;0.50;0.50;;;;;;;15.30;45.26;97560.78;29395;218;63008;-57
2023/10/08 01:40:06;;;;;;;0.50;0.50;;;;;;;15.29;44.46;97550.97;29395;223;63005;-69
2023/10/08 01:40:38;;;;;;;0.43;0.43;;;;;;;15.26;44.82;97559.78;29395;214;63009;-56
2023/10/08 01:41:18;;;;;;;0.50;0.50;;;;;;;15.25;44.91;97560.06;29395;200;63005;-68
2023/10/08 01:41:51;;;;;;;0.40;0.40;;;;;;;15.25;45.82;97566.34;29416;269;125009;-58
2023/10/08 01:42:23;;;;;;;0.50;0.50;;;;;;;15.22;45.24;97561.53;29373;219;63005;-69
2023/10/08 01:42:54;;;;;;;0.40;0.40;;;;;;;15.24;45.67;97559.31;29395;202;63009;-67
2023/10/08 01:43:27;;;;;;;0.50;0.50;;;;;;;15.23;44.81;97557.69;29395;296;63000;-57
2023/10/08 01:43:59;;;;;;;0.50;0.50;;;;;;;15.25;44.93;97560.88;29395;367;63009;-59
2023/10/08 01:44:31;;;;;;;0.40;0.40;;;;;;;15.24;44.89;97559.31;29395;251;63004;-68
2023/10/08 01:45:07;;;;;;;0.40;0.40;;;;;;;15.23;45.10;97556.88;29395;208;63009;-58
2023/10/08 01:45:43;;;;;;;0.50;0.50;;;;;;;15.21;45.05;97559.91;29395;223;63004;-70
2023/10/08 01:46:15;;;;;;;0.40;0.40;;;;;;;15.19;45.79;97558.59;29395;269;63009;-69
2023/10/08 01:46:49;;;;;;;0.50;0.50;;;;;;;15.19;45.72;97561.31;29395;197;63004;-68
2023/10/08 01:47:25;;;;;;;0.40;0.40;;;;;;;15.17;45.49;97558.91;29394;227;64013;-71
2023/10/08 01:47:57;;;;;;;0.43;0.43;;;;;;;15.17;45.54;97563.56;29395;335;63005;-67
2023/10/08 01:48:36;;;;;;;0.40;0.40;;;;;;;15.16;45.67;97561.94;29395;309;63009;-58
2023/10/08 01:49:14;;;;;;;0.40;0.40;;;;;;;15.15;45.47;97561.13;29395;231;63005;-68
2023/10/08 01:49:48;;;;;;;0.50;0.50;;;;;;;15.15;45.77;97561.13;29395;220;63009;-68
2023/10/08 01:51:37;;;;;;;0.50;0.50;;;;;;;15.14;45.77;97556.78;88174;207;64004;-70
2023/10/08 01:52:13;;;;;;;;;;;;;;;15.13;45.93;97559.81;29996;982;6009;-57
2023/10/08 01:52:46;;;;;;;0.40;0.40;;;;;;;15.12;46.29;97561.75;29400;223;63005;-69
2023/10/08 01:53:20;;;;;;;0.50;0.50;;;;;;;15.13;45.61;97559.81;29395;211;63000;-68
2023/10/08 01:53:58;;;;;;;0.50;0.50;;;;;;;15.11;46.22;97554.66;29395;224;63005;-69
2023/10/08 01:54:31;;;;;;;0.50;0.50;;;;;;;15.11;45.75;97553.84;29395;238;63000;-57
2023/10/08 01:55:03;;;;;;;0.40;0.40;;;;;;;15.10;46.18;97558.50;29395;233;63004;-69
2023/10/08 01:55:48;;;;;;;0.50;0.50;;;;;;;15.09;46.29;97554.16;29395;206;63000;-69
2023/10/08 01:56:21;;;;;;;0.50;0.50;;;;;;;15.09;46.52;97556.88;29395;218;63004;-57
2023/10/08 01:56:53;;;;;;;0.50;0.50;;;;;;;15.09;46.80;97562.34;29394;231;64009;-67
2023/10/08 01:57:24;;;;;;;0.50;0.50;;;;;;;15.14;45.84;97556.78;29395;221;63009;-69
2023/10/08 01:57:56;;;;;;;0.50;0.50;;;;;;;15.15;45.69;97555.66;29395;339;63004;-68
2023/10/08 01:58:28;;;;;;;0.50;0.50;;;;;;;15.13;46.00;97557.88;29395;199;63009;-69
2023/10/08 01:59:00;;;;;;;0.50;0.50;;;;;;;15.13;46.02;97557.09;29395;268;63005;-69
2023/10/08 01:59:32;;;;;;;0.50;0.50;;;;;;;15.12;46.23;97561.75;29395;247;63009;-70
2023/10/08 02:00:09;;;;;;;0.40;0.40;;;;;;;15.11;46.45;97560.13;29394;312;64009;-71
2023/10/08 02:00:45;;;;;;;0.50;0.50;;;;;;;15.10;46.64;97563.97;29395;203;63009;-69
2023/10/08 02:01:20;;;;;;;0.50;0.50;;;;;;;15.10;46.58;97566.69;29395;222;63005;-57
2023/10/08 02:01:56;;;;;;;0.50;0.50;;;;;;;15.09;47.05;97562.34;29395;316;63009;-70
2023/10/08 02:02:31;;;;;;;0.50;0.50;;;;;;;15.09;46.86;97557.69;29395;222;63005;-69
2023/10/08 02:03:06;;;;;;;0.50;0.50;;;;;;;15.08;46.79;97560.72;29394;197;64013;-68
2023/10/08 02:03:38;;;;;;;0.40;0.40;;;;;;;15.07;47.17;97562.66;29394;225;64009;-68
2023/10/08 02:04:12;;;;;;;0.50;0.50;;;;;;;15.06;47.20;97573.88;29395;204;63009;-68
2023/10/08 02:04:43;;;;;;;0.50;0.50;;;;;;;15.06;47.05;97576.63;29395;214;63004;-69
2023/10/08 02:05:15;;;;;;;0.50;0.50;;;;;;;15.05;47.21;97564.06;29395;237;63008;-68
2023/10/08 02:05:46;;;;;;;0.50;0.50;;;;;;;15.05;47.28;97562.16;29395;220;63004;-57
2023/10/08 02:06:20;;;;;;;0.40;0.40;;;;;;;15.05;47.00;97567.59;29395;228;63009;-69
2023/10/08 02:06:52;;;;;;;0.50;0.50;;;;;;;15.04;46.98;97565.19;29395;302;63005;-69
2023/10/08 02:07:23;;;;;;;0.47;0.47;;;;;;;15.03;46.82;97564.38;29395;219;63009;-69
2023/10/08 02:07:58;;;;;;;0.40;0.40;;;;;;;15.04;47.04;97565.19;29395;286;63009;-68
2023/10/08 02:08:31;;;;;;;0.50;0.50;;;;;;;15.03;47.00;97558.91;29394;212;64013;-58
2023/10/08 02:09:07;;;;;;;0.50;0.50;;;;;;;15.02;46.61;97568.22;29395;314;63005;-57
2023/10/08 02:09:39;;;;;;;0.50;0.50;;;;;;;15.02;46.70;97567.41;29395;202;63009;-70
2023/10/08 02:10:13;;;;;;;0.50;0.50;;;;;;;15.01;47.16;97565.78;29395;379;63004;-68
2023/10/08 02:10:47;;;;;;;0.45;0.45;;;;;;;15.00;47.38;97566.91;29394;196;64013;-69
2023/10/08 02:11:20;;;;;;;0.40;0.40;;;;;;;15.00;47.24;97572.38;29395;197;63004;-69
2023/10/08 02:11:53;;;;;;;0.40;0.40;;;;;;;15.01;47.57;97576.72;29395;220;63009;-57
2023/10/08 02:12:25;;;;;;;0.50;0.50;;;;;;;14.99;47.23;97573.47;29395;230;63004;-58
2023/10/08 02:12:59;;;;;;;0.50;0.50;;;;;;;14.99;47.22;97568.81;29395;220;63008;-57
2023/10/08 02:13:31;;;;;;;0.50;0.50;;;;;;;15.00;47.23;97575.09;29395;364;63005;-69
2023/10/08 02:14:04;;;;;;;0.50;0.50;;;;;;;15.01;47.14;97574.00;29395;209;63009;-70
2023/10/08 02:14:36;;;;;;;0.50;0.50;;;;;;;14.99;47.54;97574.28;29395;199;63005;-69
2023/10/08 02:15:11;;;;;;;0.50;0.50;;;;;;;14.99;47.19;97573.47;29395;202;63009;-69
2023/10/08 02:15:51;;;;;;;0.40;0.40;;;;;;;14.97;47.56;97575.72;29395;212;63005;-69
2023/10/08 02:16:22;;;;;;;0.50;0.50;;;;;;;14.97;47.84;97579.25;29416;225;64013;-70
2023/10/08 02:16:56;;;;;;;0.50;0.50;;;;;;;14.96;47.89;97579.56;29394;202;64005;-69
2023/10/08 02:17:30;;;;;;;0.50;0.50;;;;;;;14.95;47.73;97583.41;29395;197;63009;-69
2023/10/08 02:18:03;;;;;;;0.40;0.40;;;;;;;14.93;47.74;97580.16;29395;382;63004;-69
2023/10/08 02:18:35;;;;;;;0.50;0.50;;;;;;;14.96;47.61;97582.28;29395;202;63009;-58
2023/10/08 02:19:06;;;;;;;0.40;0.40;;;;;;;14.96;47.00;97579.56;29395;298;63004;-58
2023/10/08 02:19:40;;;;;;;0.40;0.40;;;;;;;14.97;47.25;97578.44;29395;216;63009;-57
2023/10/08 02:20:16;;;;;;;0.40;0.40;;;;;;;14.96;46.76;97579.56;29395;211;63004;-58
2023/10/08 02:20:48;;;;;;;0.40;0.40;;;;;;;14.95;47.08;97586.13;29395;202;63008;-58
2023/10/08 02:21:20;;;;;;;0.50;0.50;;;;;;;14.93;47.32;97580.16;29395;212;63005;-70
2023/10/08 02:21:51;;;;;;;0.40;0.40;;;;;;;14.92;47.15;97586.72;29394;207;64014;-57
2023/10/08 02:22:25;;;;;;;0.40;0.40;;;;;;;14.90;47.10;97581.56;29395;218;63005;-68
2023/10/08 02:22:56;;;;;;;0.40;0.40;;;;;;;14.90;46.88;97586.25;29395;268;63009;-69
2023/10/08 02:23:27;;;;;;;0.40;0.40;;;;;;;14.89;47.09;97588.19;29395;228;63005;-58
2023/10/08 02:24:03;;;;;;;0.40;0.40;;;;;;;14.88;47.18;97583.81;29395;229;63009;-57
2023/10/08 02:24:34;;;;;;;0.50;0.50;;;;;;;14.88;47.21;97588.47;29395;222;63004;-68
2023/10/08 02:25:09;;;;;;;0.45;0.45;;;;;;;14.87;47.04;97586.88;29394;196;64013;-69
2023/10/08 02:25:40;;;;;;;0.50;0.50;;;;;;;14.86;47.38;97585.25;29395;205;63004;-57
2023/10/08 02:26:14;;;;;;;0.40;0.40;;;;;;;14.86;47.67;97586.06;29395;306;63009;-69
2023/10/08 02:26:46;;;;;;;0.50;0.50;;;;;;;14.85;47.84;97583.63;29395;202;63004;-69
2023/10/08 02:27:17;;;;;;;0.40;0.40;;;;;;;14.83;47.62;97586.66;29395;221;63014;-69
2023/10/08 02:27:48;;;;;;;0.40;0.40;;;;;;;14.82;47.71;97581.50;29395;246;63004;-70
2023/10/08 02:28:20;;;;;;;0.40;0.40;;;;;;;14.80;47.77;97587.25;29395;360;63014;-69
2023/10/08 02:28:51;;;;;;;0.40;0.40;;;;;;;14.79;47.95;97584.84;29395;221;63005;-57
2023/10/08 02:29:27;;;;;;;0.45;0.45;;;;;;;14.78;48.18;97588.66;29395;212;63025;-58
2023/10/08 02:29:58;;;;;;;0.45;0.45;;;;;;;14.75;48.43;97590.91;29395;293;63005;-69
2023/10/08 02:30:30;;;;;;;0.40;0.40;;;;;;;14.73;48.42;97587.66;29394;198;64013;-70
2023/10/08 02:31:01;;;;;;;0.50;0.50;;;;;;;14.71;50.40;97594.53;29395;198;63005;-57
2023/10/08 02:31:32;;;;;;;0.45;0.45;;;;;;;14.67;49.78;97593.50;29395;228;63009;-57
2023/10/08 02:32:04;;;;;;;0.50;0.50;;;;;;;14.63;49.66;97593.31;29395;211;63004;-70
2023/10/08 02:32:42;;;;;;;0.40;0.40;;;;;;;14.62;49.14;97591.69;29395;219;63009;-59
2023/10/08 02:33:16;;;;;;;0.50;0.50;;;;;;;14.60;49.54;97588.44;29395;365;63004;-58
2023/10/08 02:33:47;;;;;;;0.50;0.50;;;;;;;14.57;49.38;97589.03;29395;224;63009;-59
2023/10/08 02:34:19;;;;;;;0.40;0.40;;;;;;;14.55;49.45;97582.28;29395;203;63004;-59
2023/10/08 02:34:50;;;;;;;0.40;0.40;;;;;;;14.54;49.53;97583.41;29395;333;63008;-69
2023/10/08 02:35:22;;;;;;;0.50;0.50;;;;;;;14.52;49.82;97586.44;29395;196;63005;-69
2023/10/08 02:35:53;;;;;;;0.40;0.40;;;;;;;14.49;50.05;97587.03;29394;215;64004;-70
2023/10/08 02:36:27;;;;;;;0.50;0.50;;;;;;;14.48;49.86;97585.41;29394;199;64009;-69
2023/10/08 02:36:59;;;;;;;0.40;0.40;;;;;;;14.47;50.24;97583.78;29395;216;63017;-68
2023/10/08 02:37:30;;;;;;;0.50;0.50;;;;;;;14.45;50.46;97594.19;29395;224;63005;-69
2023/10/08 02:38:02;;;;;;;0.50;0.50;;;;;;;14.43;50.32;97596.41;29395;216;63009;-58
2023/10/08 02:38:37;;;;;;;0.40;0.40;;;;;;;14.41;50.33;97593.19;29395;220;63005;-57
2023/10/08 02:39:21;;;;;;;0.50;0.50;;;;;;;14.38;50.58;97596.47;29395;286;63009;-69
2023/10/08 02:39:52;;;;;;;0.50;0.50;;;;;;;14.35;50.56;97603.34;29395;207;63004;-57
2023/10/08 02:40:27;;;;;;;0.50;0.50;;;;;;;14.35;50.91;97605.25;29395;320;63009;-70
2023/10/08 02:40:59;;;;;;;0.45;0.45;;;;;;;14.31;51.96;97613.25;29395;272;63004;-58
2023/10/08 02:41:30;;;;;;;0.40;0.40;;;;;;;14.29;51.73;97617.38;29394;213;64013;-58
2023/10/08 02:42:02;;;;;;;0.50;0.50;;;;;;;14.26;51.88;97612.50;29395;208;63004;-69
2023/10/08 02:42:35;;;;;;;0.40;0.40;;;;;;;14.24;52.00;97614.72;29395;262;63008;-57
2023/10/08 02:43:08;;;;;;;0.40;0.40;;;;;;;14.20;52.60;97617.28;29395;197;63005;-70
2023/10/08 02:43:42;;;;;;;0.50;0.50;;;;;;;14.18;51.72;97614.03;29395;273;63009;-57
2023/10/08 02:44:14;;;;;;;0.50;0.50;;;;;;;14.16;52.25;97626.34;29395;225;63017;-70
2023/10/08 02:44:46;;;;;;;0.50;0.50;;;;;;;14.15;53.50;97630.19;29395;293;63009;-69
2023/10/08 02:45:18;;;;;;;0.50;0.50;;;;;;;14.10;53.09;97620.16;29395;238;63005;-70
2023/10/08 02:45:49;;;;;;;0.50;0.50;;;;;;;14.06;52.38;97614.47;29395;228;63009;-57
2023/10/08 02:46:22;;;;;;;0.50;0.50;;;;;;;14.09;52.51;97615.81;29395;300;63005;-58
2023/10/08 02:46:54;;;;;;;0.50;0.50;;;;;;;14.09;52.49;97618.53;29394;236;64013;-70
2023/10/08 02:47:25;;;;;;;0.50;0.50;;;;;;;14.08;52.52;97625.09;29395;283;63004;-69
2023/10/08 02:47:57;;;;;;;0.50;0.50;;;;;;;14.09;52.47;97615.81;29395;210;63009;-68
2023/10/08 02:48:29;;;;;;;0.50;0.50;;;;;;;14.08;52.59;97617.72;29395;229;63004;-70
2023/10/08 02:49:03;;;;;;;0.50;0.50;;;;;;;14.07;52.17;97613.38;29395;302;63027;-59
2023/10/08 02:49:36;;;;;;;0.50;0.50;;;;;;;14.07;52.23;97607.91;29395;227;63011;-57